createdAt,value
2022-10-15T00:02:38.385Z,17.20
2022-10-15T00:05:29.562Z,17.10
2022-10-15T00:08:20.973Z,17.10
2022-10-15T00:13:50.877Z,16.90
2022-10-15T00:16:42.053Z,16.90
2022-10-15T00:19:34.022Z,16.80
2022-10-15T00:22:25.279Z,16.80
2022-10-15T00:25:16.872Z,16.90
2022-10-15T00:28:08.032Z,16.90
2022-10-15T00:33:42.340Z,16.70
2022-10-15T00:36:36.442Z,16.60
2022-10-15T00:39:27.974Z,16.70
2022-10-15T00:42:20.160Z,16.60
2022-10-15T00:47:53.269Z,16.50
2022-10-15T00:50:44.518Z,16.50
2022-10-15T00:53:37.052Z,16.40
2022-10-15T00:56:33.184Z,16.40
2022-10-15T01:02:08.361Z,16.30
2022-10-15T01:07:39.163Z,16.20
2022-10-15T01:13:13.802Z,15.90
2022-10-15T01:16:09.876Z,15.90
2022-10-15T01:19:04.038Z,16.00
2022-10-15T01:22:00.242Z,15.90
2022-10-15T01:25:03.325Z,15.80
2022-10-15T01:27:58.256Z,15.70
2022-10-15T01:30:52.978Z,15.60
2022-10-15T01:33:48.359Z,15.70
2022-10-15T01:36:42.801Z,15.60
2022-10-15T01:39:37.003Z,15.60
2022-10-15T01:42:31.454Z,15.70
2022-10-15T01:45:26.367Z,15.50
2022-10-15T01:48:21.149Z,15.50
2022-10-15T01:51:14.589Z,15.50
2022-10-15T01:54:09.293Z,15.50
2022-10-15T01:57:02.707Z,15.60
2022-10-15T02:02:36.744Z,15.70
2022-10-15T02:08:14.580Z,15.80
2022-10-15T02:11:09.522Z,15.70
2022-10-15T02:14:03.906Z,15.80
2022-10-15T02:19:47.003Z,15.80
2022-10-15T02:22:41.984Z,15.80
2022-10-15T02:28:16.325Z,15.70
2022-10-15T02:33:48.733Z,15.60
2022-10-15T02:39:25.746Z,15.60
2022-10-15T02:47:38.341Z,15.60
2022-10-15T02:53:10.258Z,15.50
2022-10-15T02:56:01.824Z,15.50
2022-10-15T03:01:38.970Z,15.50
2022-10-15T03:04:30.202Z,15.70
2022-10-15T03:15:21.903Z,15.20
2022-10-15T03:18:14.812Z,15.10
2022-10-15T03:21:07.141Z,15.10
2022-10-15T03:23:58.824Z,15.00
2022-10-15T03:26:51.382Z,14.90
2022-10-15T03:29:42.874Z,14.90
2022-10-15T03:32:36.339Z,14.90
2022-10-15T03:35:28.984Z,14.90
2022-10-15T03:38:20.399Z,14.90
2022-10-15T03:41:12.873Z,14.90
2022-10-15T03:44:06.527Z,15.00
2022-10-15T03:46:58.942Z,15.00
2022-10-15T03:49:51.520Z,15.00
2022-10-15T03:52:44.304Z,15.00
2022-10-15T03:55:37.079Z,15.00
2022-10-15T03:58:28.652Z,15.00
2022-10-15T04:04:04.668Z,15.00
2022-10-15T04:06:56.230Z,15.00
2022-10-15T04:09:48.327Z,14.90
2022-10-15T04:12:41.130Z,14.90
2022-10-15T04:18:14.389Z,14.90
2022-10-15T04:21:06.250Z,14.90
2022-10-15T04:23:58.169Z,14.90
2022-10-15T04:29:31.869Z,14.90
2022-10-15T04:32:25.088Z,14.90
2022-10-15T04:37:55.294Z,14.80
2022-10-15T04:40:46.570Z,14.80
2022-10-15T04:43:39.164Z,14.80
2022-10-15T04:49:10.420Z,14.80
2022-10-15T04:54:42.556Z,14.70
2022-10-15T04:57:33.579Z,14.70
2022-10-15T05:00:24.851Z,14.80
2022-10-15T05:09:01.820Z,14.70
2022-10-15T05:11:56.057Z,14.80
2022-10-15T05:14:47.671Z,14.70
2022-10-15T05:17:41.975Z,14.60
2022-10-15T05:23:13.426Z,14.60
2022-10-15T05:26:08.375Z,14.50
2022-10-15T05:31:41.247Z,14.50
2022-10-15T05:34:34.122Z,14.50
2022-10-15T05:37:27.444Z,14.40
2022-10-15T05:42:58.028Z,14.30
2022-10-15T05:48:29.495Z,14.30
2022-10-15T05:55:42.730Z,14.20
2022-10-15T05:58:37.426Z,14.20
2022-10-15T06:01:29.078Z,14.30
2022-10-15T06:04:20.352Z,14.30
2022-10-15T06:07:11.854Z,14.30
2022-10-15T06:12:54.409Z,14.40
2022-10-15T06:18:25.922Z,14.50
2022-10-15T06:21:17.420Z,14.40
2022-10-15T06:24:10.224Z,14.40
2022-10-15T06:27:02.061Z,14.40
2022-10-15T06:30:47.985Z,14.40
2022-10-15T06:33:39.051Z,14.40
2022-10-15T06:39:11.206Z,14.30
2022-10-15T06:42:03.162Z,14.30
2022-10-15T06:44:56.784Z,14.40
2022-10-15T06:47:48.174Z,14.50
2022-10-15T06:53:19.370Z,14.50
2022-10-15T06:58:54.311Z,14.50
2022-10-15T07:01:45.583Z,14.60
2022-10-15T07:04:36.927Z,14.60
2022-10-15T07:07:28.122Z,14.70
2022-10-15T07:15:53.733Z,14.80
2022-10-15T07:18:45.436Z,14.90
2022-10-15T07:24:17.335Z,15.00
2022-10-15T07:27:18.776Z,15.00
2022-10-15T07:32:46.338Z,15.10
2022-10-15T07:38:15.902Z,15.20
2022-10-15T07:41:08.635Z,15.30
2022-10-15T07:44:01.621Z,15.40
2022-10-15T07:46:53.226Z,15.50
2022-10-15T07:49:44.893Z,15.50
2022-10-15T07:52:36.186Z,15.50
2022-10-15T07:55:29.181Z,15.50
2022-10-15T07:58:21.018Z,15.60
2022-10-15T08:01:13.454Z,15.60
2022-10-15T08:04:05.180Z,15.70
2022-10-15T08:06:58.840Z,15.80
2022-10-15T08:09:50.609Z,15.80
2022-10-15T08:12:42.358Z,15.90
2022-10-15T08:18:13.903Z,16.10
2022-10-15T08:21:08.767Z,16.10
2022-10-15T08:24:01.104Z,16.10
2022-10-15T08:26:58.308Z,16.20
2022-10-15T08:29:49.799Z,16.20
2022-10-15T08:32:41.324Z,16.30
2022-10-15T08:35:34.947Z,16.40
2022-10-15T08:38:26.656Z,16.40
2022-10-15T08:41:23.814Z,16.50
2022-10-15T08:44:19.832Z,16.60
2022-10-15T08:49:54.698Z,16.70
2022-10-15T08:52:48.857Z,16.70
2022-10-15T08:58:23.427Z,16.80
2022-10-15T09:04:01.543Z,17.00
2022-10-15T09:06:58.952Z,17.10
2022-10-15T09:09:53.476Z,17.20
2022-10-15T09:15:31.407Z,17.30
2022-10-15T09:18:26.583Z,17.40
2022-10-15T09:21:18.728Z,17.50
2022-10-15T09:24:14.646Z,17.50
2022-10-15T09:27:10.637Z,17.60
2022-10-15T09:30:08.520Z,17.70
2022-10-15T09:35:46.128Z,17.80
2022-10-15T09:38:40.644Z,17.80
2022-10-15T09:41:37.618Z,17.90
2022-10-15T09:47:25.945Z,18.00
2022-10-15T09:50:19.256Z,18.10
2022-10-15T09:53:16.602Z,18.20
2022-10-15T09:56:12.084Z,18.30
2022-10-15T09:59:08.905Z,18.30
2022-10-15T10:02:03.982Z,18.40
2022-10-15T10:04:56.246Z,18.50
2022-10-15T10:07:48.160Z,18.60
2022-10-15T10:10:43.150Z,18.60
2022-10-15T10:13:36.528Z,18.70
2022-10-15T10:16:34.127Z,18.70
2022-10-15T10:19:25.694Z,18.70
2022-10-15T10:25:01.789Z,18.90
2022-10-15T10:30:35.728Z,19.00
2022-10-15T10:33:31.070Z,19.10
2022-10-15T10:36:30.278Z,19.10
2022-10-15T10:39:27.478Z,19.10
2022-10-15T10:42:30.726Z,19.20
2022-10-15T10:48:18.810Z,19.40
2022-10-15T10:51:18.232Z,19.40
2022-10-15T10:54:08.527Z,19.50
2022-10-15T10:57:02.418Z,19.60
2022-10-15T10:59:58.283Z,19.70
2022-10-15T11:02:49.997Z,19.70
2022-10-15T11:08:26.500Z,19.90
2022-10-15T11:11:23.001Z,20.00
2022-10-15T11:14:19.251Z,20.00
2022-10-15T11:17:15.678Z,20.10
2022-10-15T11:20:27.834Z,20.10
2022-10-15T11:23:11.618Z,20.20
2022-10-15T11:26:05.984Z,20.20
2022-10-15T11:29:01.798Z,20.30
2022-10-15T11:34:40.047Z,20.40
2022-10-15T11:37:38.416Z,20.50
2022-10-15T11:40:34.591Z,20.60
2022-10-15T11:43:32.051Z,20.70
2022-10-15T11:49:16.964Z,20.80
2022-10-15T11:55:04.704Z,20.90
2022-10-15T11:57:59.748Z,21.00
2022-10-15T12:00:56.331Z,21.00
2022-10-15T12:03:52.993Z,21.00
2022-10-15T12:06:48.250Z,21.10
2022-10-15T12:09:43.273Z,21.10
2022-10-15T12:12:39.365Z,21.20
2022-10-15T12:15:34.222Z,21.20
2022-10-15T12:18:29.304Z,21.20
2022-10-15T12:24:56.680Z,21.40
2022-10-15T12:27:46.689Z,21.50
2022-10-15T12:30:39.248Z,21.60
2022-10-15T12:33:38.231Z,21.70
2022-10-15T12:36:32.009Z,21.80
2022-10-15T12:39:51.235Z,21.90
2022-10-15T12:42:29.527Z,21.90
2022-10-15T12:45:24.213Z,21.90
2022-10-15T12:48:25.441Z,22.00
2022-10-15T12:51:47.293Z,22.00
2022-10-15T12:54:43.989Z,22.10
2022-10-15T12:57:58.070Z,22.20
2022-10-15T13:03:35.996Z,22.30
2022-10-15T13:06:40.324Z,22.30
2022-10-15T13:09:32.949Z,22.50
2022-10-15T13:12:27.663Z,22.60
2022-10-15T13:15:21.776Z,22.60
2022-10-15T13:18:16.235Z,22.70
2022-10-15T13:21:10.029Z,22.80
2022-10-15T13:24:01.264Z,22.90
2022-10-15T13:26:54.427Z,23.00
2022-10-15T13:29:58.038Z,23.00
2022-10-15T13:32:52.245Z,23.00
2022-10-15T13:35:43.722Z,23.10
2022-10-15T13:41:28.310Z,23.20
2022-10-15T13:44:25.348Z,23.30
2022-10-15T13:47:32.184Z,23.30
2022-10-15T13:53:07.365Z,23.20
2022-10-15T13:58:39.584Z,23.30
2022-10-15T14:04:19.206Z,23.50
2022-10-15T14:07:27.648Z,23.50
2022-10-15T14:10:20.159Z,23.60
2022-10-15T14:13:12.870Z,23.60
2022-10-15T14:16:17.706Z,23.70
2022-10-15T14:21:54.880Z,25.70
2022-10-15T14:24:47.835Z,25.10
2022-10-15T14:27:40.716Z,24.40
2022-10-15T14:30:34.352Z,24.10
2022-10-15T14:33:46.766Z,24.00
2022-10-15T14:36:45.332Z,23.90
2022-10-15T14:39:39.800Z,23.90
2022-10-15T14:42:35.671Z,23.90
2022-10-15T14:45:30.191Z,23.80
2022-10-15T14:48:25.127Z,23.80
2022-10-15T14:51:20.476Z,23.80
2022-10-15T14:54:19.138Z,23.80
2022-10-15T14:57:20.153Z,23.80
2022-10-15T15:00:18.365Z,23.80
2022-10-15T15:03:14.639Z,23.90
2022-10-15T15:06:06.378Z,23.90
2022-10-15T15:09:00.730Z,23.90
2022-10-15T15:11:52.167Z,23.90
2022-10-15T15:14:44.506Z,23.90
2022-10-15T15:17:40.470Z,24.00
2022-10-15T15:20:31.560Z,24.00
2022-10-15T15:23:26.019Z,24.20
2022-10-15T15:26:17.222Z,24.30
2022-10-15T15:29:14.666Z,24.50
2022-10-15T15:32:06.634Z,25.20
2022-10-15T15:34:59.351Z,26.70
2022-10-15T15:37:50.983Z,28.10
2022-10-15T15:43:26.730Z,30.70
2022-10-15T15:48:58.835Z,31.10
2022-10-15T15:54:29.257Z,30.50
2022-10-15T15:57:20.601Z,30.30
2022-10-15T16:00:22.032Z,29.70
2022-10-15T16:03:14.828Z,28.70
2022-10-15T16:08:54.713Z,26.20
2022-10-15T16:11:46.551Z,25.40
2022-10-15T16:14:38.152Z,24.90
2022-10-15T16:20:15.149Z,24.10
2022-10-15T16:23:06.819Z,23.90
2022-10-15T16:28:44.255Z,23.50
2022-10-15T16:31:37.399Z,23.30
2022-10-15T16:34:29.045Z,23.10
2022-10-15T16:37:20.925Z,23.00
2022-10-15T16:42:51.026Z,22.60
2022-10-15T16:45:42.440Z,22.40
2022-10-15T16:48:35.848Z,22.20
2022-10-15T16:54:23.828Z,21.70
2022-10-15T17:05:34.090Z,21.30
2022-10-15T17:08:26.911Z,21.00
2022-10-15T17:11:21.513Z,21.00
2022-10-15T17:14:15.091Z,20.80
2022-10-15T17:19:46.869Z,20.70
2022-10-15T17:26:42.356Z,20.70
2022-10-15T17:29:34.090Z,20.50
2022-10-15T17:32:25.811Z,20.40
2022-10-15T17:37:59.702Z,20.20
2022-10-15T17:40:51.511Z,20.10
2022-10-15T17:43:42.783Z,19.90
2022-10-15T17:49:14.163Z,19.70
2022-10-15T17:52:06.643Z,19.60
2022-10-15T17:54:58.188Z,19.70
2022-10-15T17:57:49.580Z,19.60
2022-10-15T18:00:41.455Z,19.60
2022-10-15T18:03:33.454Z,19.50
2022-10-15T18:06:26.815Z,19.50
2022-10-15T18:09:18.508Z,19.50
2022-10-15T18:12:10.135Z,19.50
2022-10-15T18:15:02.645Z,19.40
2022-10-15T18:17:57.663Z,19.40
2022-10-15T18:20:49.122Z,19.30
2022-10-15T18:23:40.641Z,19.30
2022-10-15T18:26:34.217Z,19.20
2022-10-15T18:29:26.031Z,19.20
2022-10-15T18:35:00.483Z,19.10
2022-10-15T18:37:52.621Z,19.10
2022-10-15T18:40:44.591Z,19.10
2022-10-15T18:43:36.492Z,19.10
2022-10-15T18:46:29.800Z,19.00
2022-10-15T18:49:22.727Z,19.00
2022-10-15T18:52:21.882Z,19.00
2022-10-15T18:55:08.798Z,18.90
2022-10-15T18:58:02.256Z,18.90
2022-10-15T19:00:55.497Z,18.80
2022-10-15T19:03:52.103Z,18.80
2022-10-15T19:06:46.479Z,18.80
2022-10-15T19:09:37.852Z,18.80
2022-10-15T19:12:31.011Z,18.70
2022-10-15T19:15:22.534Z,18.60
2022-10-15T19:18:15.879Z,18.50
2022-10-15T19:21:07.736Z,18.50
2022-10-15T19:23:59.412Z,18.50
2022-10-15T19:26:51.539Z,18.50
2022-10-15T19:29:42.785Z,18.40
2022-10-15T19:32:34.003Z,18.40
2022-10-15T19:35:27.277Z,18.40
2022-10-15T19:38:20.198Z,18.40
2022-10-15T19:41:11.735Z,18.30
2022-10-15T19:44:05.010Z,18.30
2022-10-15T19:46:56.747Z,18.30
2022-10-15T19:49:47.954Z,18.30
2022-10-15T19:52:39.441Z,18.30
2022-10-15T19:55:31.781Z,18.30
2022-10-15T19:58:24.063Z,18.20
2022-10-15T20:01:15.271Z,18.10
2022-10-15T20:04:07.447Z,18.10
2022-10-15T20:06:59.122Z,18.00
2022-10-15T20:09:50.714Z,18.00
2022-10-15T20:12:43.717Z,18.00
2022-10-15T20:15:35.453Z,18.00
2022-10-15T20:18:26.964Z,17.90
2022-10-15T20:21:19.599Z,17.80
2022-10-15T20:24:11.114Z,17.80
2022-10-15T20:27:02.680Z,17.70
2022-10-15T20:29:54.265Z,17.70
2022-10-15T20:32:46.889Z,17.60
2022-10-15T20:35:39.811Z,17.60
2022-10-15T20:38:31.658Z,17.60
2022-10-15T20:41:23.007Z,17.60
2022-10-15T20:44:14.906Z,17.60
2022-10-15T20:47:08.755Z,17.50
2022-10-15T20:50:04.697Z,17.50
2022-10-15T20:52:57.255Z,17.50
2022-10-15T20:55:48.782Z,17.60
2022-10-15T20:58:40.526Z,17.50
2022-10-15T21:01:32.408Z,17.50
2022-10-15T21:04:23.948Z,17.40
2022-10-15T21:07:15.550Z,17.30
2022-10-15T21:10:08.781Z,17.30
2022-10-15T21:13:00.164Z,17.20
2022-10-15T21:15:51.722Z,17.20
2022-10-15T21:18:43.415Z,17.30
2022-10-15T21:21:35.232Z,17.20
2022-10-15T21:24:28.334Z,17.20
2022-10-15T21:27:21.594Z,17.10
2022-10-15T21:30:14.263Z,17.20
2022-10-15T21:33:05.665Z,17.10
2022-10-15T21:35:57.557Z,17.10
2022-10-15T21:38:50.054Z,17.10
2022-10-15T21:41:42.270Z,17.10
2022-10-15T21:44:35.328Z,17.10
2022-10-15T21:47:27.178Z,17.10
2022-10-15T21:50:19.032Z,17.00
2022-10-15T21:53:11.443Z,17.00
2022-10-15T21:56:03.340Z,17.00
2022-10-15T21:58:55.105Z,17.00
2022-10-15T22:01:46.543Z,16.90
2022-10-15T22:04:37.933Z,16.90
2022-10-15T22:07:29.342Z,16.90
2022-10-15T22:10:20.713Z,16.80
2022-10-15T22:13:12.444Z,16.70
2022-10-15T22:16:04.016Z,16.70
2022-10-15T22:18:56.150Z,16.70
2022-10-15T22:21:49.118Z,16.70
2022-10-15T22:24:40.902Z,16.70
2022-10-15T22:27:33.699Z,16.70
2022-10-15T22:30:25.031Z,16.70
2022-10-15T22:33:16.494Z,16.70
2022-10-15T22:36:13.582Z,16.90
2022-10-15T22:39:06.927Z,16.80
2022-10-15T22:41:58.461Z,16.80
2022-10-15T22:44:50.066Z,16.70
2022-10-15T22:47:42.175Z,16.70
2022-10-15T22:50:33.253Z,16.60
2022-10-15T22:53:24.887Z,16.60
2022-10-15T22:56:18.191Z,16.60
2022-10-15T23:02:01.254Z,16.60
2022-10-15T23:04:52.846Z,16.60
2022-10-15T23:07:45.346Z,16.60
2022-10-15T23:10:36.687Z,16.60
2022-10-15T23:13:28.116Z,16.50
2022-10-15T23:16:21.776Z,16.40
2022-10-15T23:19:17.477Z,16.40
2022-10-15T23:22:10.919Z,16.30
2022-10-15T23:25:04.593Z,16.30
2022-10-15T23:27:56.372Z,16.30
2022-10-15T23:30:47.999Z,16.30
2022-10-15T23:33:39.838Z,16.30
2022-10-15T23:36:33.262Z,16.20
2022-10-15T23:39:27.036Z,16.20
2022-10-15T23:42:18.476Z,16.20
2022-10-15T23:45:10.996Z,16.10
2022-10-15T23:48:03.324Z,16.10
2022-10-15T23:51:00.693Z,16.10
2022-10-15T23:53:49.024Z,16.10
2022-10-15T23:56:40.288Z,16.10
2022-10-15T23:59:31.696Z,16.10
